Alcains, Portugal
Current Conditions -  °F | °C
As of 11:00 AM on Monday 24 Nov 2014 (Local Time) from LPMR Reporting Station
Few Clouds Few Clouds  
Wind Chill: 64°   Ceiling: Unl
Heat Index: 64°   Visibility: 6mi
Dew Point: 59°   Wind: 6mph
Humidity: 83%   Direction: 10°N
Pressure: 30.03"   Gusts: NA
Location:  39.92°N, 7.46°W
Report Text: LPMR 241200Z 01005KT 330V040 9999 FEW020 18/15 Q1017
Loading
Personal Weather Stations






























Interactive Weather Map New forecast layout! Learn more

10-Day Weather Forecast

Advertisements
Track Severe Weather on mobile